Alix, Canada
Current Conditions -  °F | °C
As of 2:00 AM on Wednesday 28 Jan 2015 (Local Time) from CYQF Reporting Station
Light Snow Light Snow  
Wind Chill: 28°   Ceiling: 3000
Heat Index: 28°   Visibility: 3mi
Dew Point: 27°   Wind: 3mph
Humidity: 93%   Direction: 180°S
Pressure: 29.96"   Gusts: NA
Location:  52.4°N, 113.18°W
Report Text: CYQF 280900Z 18003KT 3SM -SN BR SCT005 OVC030 M02/M03 A2996 RMK SF4SC4 SLP190
Loading
Personal Weather Stations






























Interactive Weather Map New forecast layout! Learn more

10-Day Weather Forecast

Advertisements
Track Severe Weather on mobile